Nordness, Iowa
Current Conditions -  °F | °C
As of 6:35 AM on Friday 21 Nov 2014 (Local Time) from KDEH Reporting Station
Clear Clear  
Wind Chill: -3°   Ceiling: Unl
Heat Index:   Visibility: 10mi
Dew Point:   Wind: 6mph
Humidity: 79%   Direction: 150°SSE
Pressure: 30.29"   Gusts: NA
Location:  43.3626°N, 91.8164°W
Report Text: KDEH 211235Z AUTO 15005KT 10SM CLR M14/M17 A3029 RMK AO2
Loading
Personal Weather Stations






























Interactive Weather Map New forecast layout! Learn more

10-Day Weather Forecast

Advertisements
Track Severe Weather on mobile